createdAt,value
2023-01-04T00:00:17.390Z,1021.95
2023-01-04T00:01:17.340Z,1022.00
2023-01-04T00:02:17.519Z,1021.92
2023-01-04T00:03:17.448Z,1021.91
2023-01-04T00:04:17.312Z,1021.95
2023-01-04T00:05:17.322Z,1021.89
2023-01-04T00:06:17.291Z,1021.86
2023-01-04T00:07:17.295Z,1021.79
2023-01-04T00:08:17.266Z,1021.83
2023-01-04T00:09:17.269Z,1021.77
2023-01-04T00:10:17.243Z,1021.74
2023-01-04T00:11:17.260Z,1021.64
2023-01-04T00:12:17.223Z,1021.65
2023-01-04T00:13:17.220Z,1021.64
2023-01-04T00:14:17.266Z,1021.64
2023-01-04T00:15:17.193Z,1021.63
2023-01-04T00:16:17.282Z,1021.67
2023-01-04T00:17:17.167Z,1021.62
2023-01-04T00:18:17.177Z,1021.60
2023-01-04T00:19:17.149Z,1021.60
2023-01-04T00:20:17.140Z,1021.60
2023-01-04T00:21:17.157Z,1021.56
2023-01-04T00:22:17.112Z,1021.59
2023-01-04T00:23:17.106Z,1021.57
2023-01-04T00:24:17.103Z,1021.63
2023-01-04T00:25:17.084Z,1021.56
2023-01-04T00:26:17.098Z,1021.52
2023-01-04T00:27:17.060Z,1021.63
2023-01-04T00:28:17.055Z,1021.64
2023-01-04T00:29:17.040Z,1021.51
2023-01-04T00:30:17.026Z,1021.43
2023-01-04T00:31:17.151Z,1021.43
2023-01-04T00:32:17.010Z,1021.34
2023-01-04T00:33:17.016Z,1021.32
2023-01-04T00:34:17.015Z,1021.23
2023-01-04T00:35:43.719Z,1021.28
2023-01-04T00:36:17.983Z,1021.25
2023-01-04T00:37:16.959Z,1021.20
2023-01-04T00:38:16.941Z,1021.26
2023-01-04T00:39:16.958Z,1021.19
2023-01-04T00:40:16.924Z,1021.18
2023-01-04T00:41:49.333Z,1021.16
2023-01-04T00:42:17.906Z,1021.10
2023-01-04T00:43:16.896Z,1021.02
2023-01-04T00:44:16.907Z,1021.04
2023-01-04T00:45:16.882Z,1020.98
2023-01-04T00:46:16.938Z,1021.02
2023-01-04T00:47:16.850Z,1020.99
2023-01-04T00:48:16.842Z,1020.94
2023-01-04T00:49:16.849Z,1021.00
2023-01-04T00:50:16.834Z,1020.95
2023-01-04T00:51:16.807Z,1021.00
2023-01-04T00:52:16.821Z,1020.96
2023-01-04T00:53:16.800Z,1020.95
2023-01-04T00:54:16.783Z,1020.95
2023-01-04T00:55:16.771Z,1020.93
2023-01-04T00:56:16.757Z,1020.86
2023-01-04T00:57:16.769Z,1020.85
2023-01-04T00:58:16.757Z,1020.80
2023-01-04T00:59:16.740Z,1020.80
2023-01-04T01:00:16.722Z,1020.70
2023-01-04T01:01:16.826Z,1020.71
2023-01-04T01:02:16.927Z,1020.72
2023-01-04T01:03:16.917Z,1020.62
2023-01-04T01:04:16.835Z,1020.62
2023-01-04T01:05:16.663Z,1020.58
2023-01-04T01:06:16.672Z,1020.56
2023-01-04T01:07:16.642Z,1020.62
2023-01-04T01:08:16.650Z,1020.62
2023-01-04T01:09:16.626Z,1020.65
2023-01-04T01:10:16.614Z,1020.62
2023-01-04T01:11:16.603Z,1020.57
2023-01-04T01:12:16.611Z,1020.63
2023-01-04T01:13:16.579Z,1020.60
2023-01-04T01:14:16.568Z,1020.58
2023-01-04T01:15:16.562Z,1020.58
2023-01-04T01:16:16.618Z,1020.53
2023-01-04T01:17:16.619Z,1020.64
2023-01-04T01:18:16.556Z,1020.59
2023-01-04T01:19:16.526Z,1020.53
2023-01-04T01:20:16.506Z,1020.55
2023-01-04T01:21:16.494Z,1020.50
2023-01-04T01:22:16.528Z,1020.51
2023-01-04T01:23:16.478Z,1020.52
2023-01-04T01:24:16.473Z,1020.52
2023-01-04T01:25:16.456Z,1020.47
2023-01-04T01:26:16.443Z,1020.56
2023-01-04T01:27:16.446Z,1020.43
2023-01-04T01:28:16.419Z,1020.45
2023-01-04T01:29:16.430Z,1020.48
2023-01-04T01:30:16.419Z,1020.46
2023-01-04T01:31:16.467Z,1020.51
2023-01-04T01:32:16.397Z,1020.53
2023-01-04T01:33:16.375Z,1020.54
2023-01-04T01:34:16.375Z,1020.58
2023-01-04T01:35:16.370Z,1020.61
2023-01-04T01:36:16.335Z,1020.60
2023-01-04T01:37:16.327Z,1020.56
2023-01-04T01:38:16.334Z,1020.59
2023-01-04T01:39:16.335Z,1020.62
2023-01-04T01:40:16.319Z,1020.62
2023-01-04T01:41:16.306Z,1020.62
2023-01-04T01:42:16.270Z,1020.66
2023-01-04T01:43:16.280Z,1020.52
2023-01-04T01:44:16.249Z,1020.67
2023-01-04T01:45:16.251Z,1020.59
2023-01-04T01:46:16.345Z,1020.65
2023-01-04T01:47:16.225Z,1020.62
2023-01-04T01:48:16.210Z,1020.59
2023-01-04T01:49:16.227Z,1020.65
2023-01-04T01:50:16.189Z,1020.63
2023-01-04T01:51:16.204Z,1020.71
2023-01-04T01:52:16.168Z,1020.66
2023-01-04T01:53:16.156Z,1020.69
2023-01-04T01:54:16.195Z,1020.64
2023-01-04T01:55:16.135Z,1020.64
2023-01-04T01:56:16.141Z,1020.64
2023-01-04T01:57:16.172Z,1020.67
2023-01-04T01:58:16.103Z,1020.68
2023-01-04T01:59:16.110Z,1020.65
2023-01-04T02:00:16.089Z,1020.59
2023-01-04T02:01:16.264Z,1020.58
2023-01-04T02:02:16.180Z,1020.66
2023-01-04T02:03:16.234Z,1020.52
2023-01-04T02:04:16.127Z,1020.50
2023-01-04T02:05:16.028Z,1020.40
2023-01-04T02:06:16.018Z,1020.50
2023-01-04T02:07:16.009Z,1020.41
2023-01-04T02:08:16.027Z,1020.37
2023-01-04T02:09:16.023Z,1020.42
2023-01-04T02:10:15.999Z,1020.38
2023-01-04T02:11:15.967Z,1020.41
2023-01-04T02:12:15.978Z,1020.39
2023-01-04T02:13:15.958Z,1020.41
2023-01-04T02:14:15.937Z,1020.29
2023-01-04T02:15:15.924Z,1020.28
2023-01-04T02:16:16.001Z,1020.23
2023-01-04T02:17:15.921Z,1020.15
2023-01-04T02:18:15.887Z,1020.15
2023-01-04T02:19:15.892Z,1020.12
2023-01-04T02:20:15.895Z,1020.11
2023-01-04T02:21:15.860Z,1020.03
2023-01-04T02:22:15.876Z,1019.98
2023-01-04T02:23:15.845Z,1019.92
2023-01-04T02:24:15.827Z,1019.85
2023-01-04T02:25:15.814Z,1019.77
2023-01-04T02:26:15.842Z,1019.77
2023-01-04T02:27:15.798Z,1019.72
2023-01-04T02:28:15.809Z,1019.68
2023-01-04T02:29:15.775Z,1019.57
2023-01-04T02:30:15.764Z,1019.57
2023-01-04T02:31:15.891Z,1019.56
2023-01-04T02:32:15.738Z,1019.53
2023-01-04T02:33:15.756Z,1019.49
2023-01-04T02:34:15.742Z,1019.45
2023-01-04T02:35:15.713Z,1019.45
2023-01-04T02:36:15.700Z,1019.48
2023-01-04T02:37:15.689Z,1019.40
2023-01-04T02:38:15.723Z,1019.43
2023-01-04T02:39:15.673Z,1019.37
2023-01-04T02:40:15.662Z,1019.29
2023-01-04T02:41:15.651Z,1019.26
2023-01-04T02:42:15.706Z,1019.23
2023-01-04T02:43:16.307Z,1019.07
2023-01-04T02:44:15.610Z,1019.14
2023-01-04T02:45:15.629Z,1019.08
2023-01-04T02:46:15.652Z,1019.07
2023-01-04T02:47:15.611Z,1019.02
2023-01-04T02:48:15.583Z,1018.98
2023-01-04T02:49:15.564Z,1018.93
2023-01-04T02:50:15.550Z,1018.96
2023-01-04T02:51:15.546Z,1018.95
2023-01-04T02:52:15.554Z,1018.99
2023-01-04T02:53:15.518Z,1018.97
2023-01-04T02:54:15.502Z,1018.95
2023-01-04T02:55:15.517Z,1018.99
2023-01-04T02:56:15.487Z,1019.03
2023-01-04T02:57:15.504Z,1019.04
2023-01-04T02:58:15.517Z,1019.03
2023-01-04T02:59:15.464Z,1019.05
2023-01-04T03:00:15.456Z,1019.06
2023-01-04T03:01:15.513Z,1019.03
2023-01-04T03:02:15.698Z,1019.07
2023-01-04T03:03:15.578Z,1019.02
2023-01-04T03:04:15.437Z,1018.98
2023-01-04T03:05:15.393Z,1019.00
2023-01-04T03:06:15.378Z,1018.97
2023-01-04T03:07:15.375Z,1018.95
2023-01-04T03:08:15.355Z,1018.92
2023-01-04T03:09:15.372Z,1018.91
2023-01-04T03:10:15.349Z,1018.98
2023-01-04T03:11:15.331Z,1018.90
2023-01-04T03:12:15.315Z,1018.86
2023-01-04T03:13:15.332Z,1018.93
2023-01-04T03:14:30.851Z,1018.91
2023-01-04T03:15:16.300Z,1018.80
2023-01-04T03:16:15.361Z,1018.82
2023-01-04T03:17:15.267Z,1018.72
2023-01-04T03:18:15.275Z,1018.82
2023-01-04T03:19:15.241Z,1018.70
2023-01-04T03:20:15.253Z,1018.72
2023-01-04T03:21:15.232Z,1018.71
2023-01-04T03:22:15.211Z,1018.70
2023-01-04T03:23:15.219Z,1018.74
2023-01-04T03:24:15.213Z,1018.70
2023-01-04T03:25:15.183Z,1018.69
2023-01-04T03:26:15.169Z,1018.74
2023-01-04T03:27:15.168Z,1018.78
2023-01-04T03:28:15.178Z,1018.68
2023-01-04T03:29:15.136Z,1018.68
2023-01-04T03:30:15.145Z,1018.65
2023-01-04T03:31:15.192Z,1018.67
2023-01-04T03:32:15.117Z,1018.68
2023-01-04T03:33:15.104Z,1018.64
2023-01-04T03:34:15.114Z,1018.59
2023-01-04T03:35:15.083Z,1018.55
2023-01-04T03:36:15.066Z,1018.52
2023-01-04T03:37:15.055Z,1018.44
2023-01-04T03:38:15.055Z,1018.40
2023-01-04T03:39:15.064Z,1018.34
2023-01-04T03:40:15.020Z,1018.36
2023-01-04T03:41:15.037Z,1018.30
2023-01-04T03:42:15.000Z,1018.28
2023-01-04T03:43:14.996Z,1018.23
2023-01-04T03:44:14.996Z,1018.24
2023-01-04T03:45:14.964Z,1018.29
2023-01-04T03:46:15.085Z,1018.13
2023-01-04T03:47:15.002Z,1018.15
2023-01-04T03:48:14.936Z,1018.15
2023-01-04T03:49:14.925Z,1018.03
2023-01-04T03:50:14.950Z,1018.03
2023-01-04T03:51:14.972Z,1018.08
2023-01-04T03:52:14.902Z,1018.01
2023-01-04T03:53:14.882Z,1018.00
2023-01-04T03:54:14.875Z,1017.95
2023-01-04T03:55:14.858Z,1017.97
2023-01-04T03:56:14.882Z,1017.96
2023-01-04T03:57:14.843Z,1017.88
2023-01-04T03:58:14.848Z,1017.96
2023-01-04T03:59:14.823Z,1017.89
2023-01-04T04:00:14.815Z,1017.85
2023-01-04T04:01:15.039Z,1017.93
2023-01-04T04:02:14.946Z,1017.87
2023-01-04T04:03:14.779Z,1017.84
2023-01-04T04:04:14.865Z,1017.77
2023-01-04T04:05:14.757Z,1017.67
2023-01-04T04:06:14.762Z,1017.76
2023-01-04T04:07:14.741Z,1017.71
2023-01-04T04:08:14.731Z,1017.69
2023-01-04T04:09:14.716Z,1017.75
2023-01-04T04:10:14.706Z,1017.75
2023-01-04T04:11:14.713Z,1017.76
2023-01-04T04:12:14.688Z,1017.62
2023-01-04T04:13:14.678Z,1017.67
2023-01-04T04:14:14.664Z,1017.64
2023-01-04T04:15:14.650Z,1017.65
2023-01-04T04:16:14.703Z,1017.56
2023-01-04T04:17:14.627Z,1017.63
2023-01-04T04:18:14.661Z,1017.59
2023-01-04T04:19:14.647Z,1017.56
2023-01-04T04:20:14.611Z,1017.41
2023-01-04T04:21:14.585Z,1017.45
2023-01-04T04:22:14.600Z,1017.43
2023-01-04T04:23:14.577Z,1017.40
2023-01-04T04:24:14.561Z,1017.36
2023-01-04T04:25:14.555Z,1017.36
2023-01-04T04:26:14.533Z,1017.34
2023-01-04T04:27:14.543Z,1017.31
2023-01-04T04:28:14.513Z,1017.28
2023-01-04T04:29:14.501Z,1017.28
2023-01-04T04:30:14.498Z,1017.19
2023-01-04T04:31:14.574Z,1017.16
2023-01-04T04:32:14.604Z,1017.15
2023-01-04T04:33:14.460Z,1017.12
2023-01-04T04:34:14.562Z,1017.09
2023-01-04T04:35:14.438Z,1017.10
2023-01-04T04:36:14.438Z,1017.14
2023-01-04T04:37:14.438Z,1017.18
2023-01-04T04:38:14.429Z,1017.07
2023-01-04T04:39:14.423Z,1017.03
2023-01-04T04:40:14.383Z,1017.00
2023-01-04T04:41:14.380Z,1017.03
2023-01-04T04:42:14.370Z,1017.02
2023-01-04T04:43:14.351Z,1016.98
2023-01-04T04:44:14.373Z,1016.86
2023-01-04T04:45:14.327Z,1016.83
2023-01-04T04:46:14.384Z,1016.82
2023-01-04T04:47:14.336Z,1016.76
2023-01-04T04:48:14.305Z,1016.80
2023-01-04T04:49:14.308Z,1016.70
2023-01-04T04:50:14.300Z,1016.67
2023-01-04T04:51:14.263Z,1016.67
2023-01-04T04:52:14.281Z,1016.67
2023-01-04T04:53:14.248Z,1016.59
2023-01-04T04:54:14.241Z,1016.57
2023-01-04T04:55:14.223Z,1016.50
2023-01-04T04:56:14.211Z,1016.59
2023-01-04T04:57:14.223Z,1016.52
2023-01-04T04:58:14.188Z,1016.54
2023-01-04T04:59:14.191Z,1016.49
2023-01-04T05:00:14.180Z,1016.50
2023-01-04T05:01:14.362Z,1016.48
2023-01-04T05:02:14.373Z,1016.42
2023-01-04T05:03:14.250Z,1016.31
2023-01-04T05:04:14.130Z,1016.30
2023-01-04T05:05:14.114Z,1016.41
2023-01-04T05:06:14.130Z,1016.41
2023-01-04T05:07:14.114Z,1016.33
2023-01-04T05:08:14.086Z,1016.29
2023-01-04T05:09:14.069Z,1016.36
2023-01-04T05:10:14.058Z,1016.30
2023-01-04T05:11:14.052Z,1016.29
2023-01-04T05:12:14.061Z,1016.23
2023-01-04T05:13:14.026Z,1016.27
2023-01-04T05:14:14.018Z,1016.28
2023-01-04T05:15:14.009Z,1016.34
2023-01-04T05:16:14.086Z,1016.24
2023-01-04T05:17:14.005Z,1016.16
2023-01-04T05:18:13.982Z,1016.09
2023-01-04T05:19:13.960Z,1015.97
2023-01-04T05:20:13.951Z,1016.05
2023-01-04T05:21:18.444Z,1016.01
2023-01-04T05:22:14.972Z,1016.02
2023-01-04T05:23:13.959Z,1015.95
2023-01-04T05:24:13.914Z,1015.99
2023-01-04T05:25:13.894Z,1015.83
2023-01-04T05:26:13.893Z,1015.86
2023-01-04T05:27:13.874Z,1015.75
2023-01-04T05:28:13.901Z,1015.85
2023-01-04T05:29:13.859Z,1015.91
2023-01-04T05:30:13.842Z,1015.79
2023-01-04T05:31:13.858Z,1015.79
2023-01-04T05:32:13.861Z,1015.77
2023-01-04T05:33:13.830Z,1015.70
2023-01-04T05:34:17.144Z,1015.57
2023-01-04T05:35:14.785Z,1015.64
2023-01-04T05:36:13.776Z,1015.57
2023-01-04T05:37:13.768Z,1015.58
2023-01-04T05:38:13.807Z,1015.45
2023-01-04T05:39:13.763Z,1015.37
2023-01-04T05:40:13.739Z,1015.40
2023-01-04T05:41:13.720Z,1015.44
2023-01-04T05:42:13.716Z,1015.39
2023-01-04T05:43:13.771Z,1015.36
2023-01-04T05:44:13.694Z,1015.18
2023-01-04T05:45:13.678Z,1015.22
2023-01-04T05:46:13.706Z,1015.30
2023-01-04T05:47:15.236Z,1015.29
2023-01-04T05:48:13.674Z,1015.18
2023-01-04T05:49:13.636Z,1015.03
2023-01-04T05:50:13.625Z,1015.09
2023-01-04T05:51:13.619Z,1014.96
2023-01-04T05:52:13.600Z,1014.98
2023-01-04T05:53:13.616Z,1015.01
2023-01-04T05:54:17.880Z,1015.02
2023-01-04T05:55:14.567Z,1014.95
2023-01-04T05:56:13.561Z,1015.00
2023-01-04T05:57:13.543Z,1015.01
2023-01-04T05:58:13.561Z,1014.97
2023-01-04T05:59:13.525Z,1014.97
2023-01-04T06:00:13.530Z,1014.97
2023-01-04T06:01:13.535Z,1014.94
2023-01-04T06:02:13.603Z,1014.91
2023-01-04T06:03:13.689Z,1014.91
2023-01-04T06:04:13.577Z,1014.83
2023-01-04T06:05:13.456Z,1014.89
2023-01-04T06:06:13.454Z,1014.84
2023-01-04T06:07:13.437Z,1014.77
2023-01-04T06:08:13.448Z,1014.80
2023-01-04T06:09:13.412Z,1014.71
2023-01-04T06:10:13.434Z,1014.72
2023-01-04T06:11:13.392Z,1014.71
2023-01-04T06:12:13.382Z,1014.68
2023-01-04T06:13:13.388Z,1014.64
2023-01-04T06:14:13.375Z,1014.68
2023-01-04T06:15:13.354Z,1014.77
2023-01-04T06:16:13.349Z,1014.71
2023-01-04T06:17:13.431Z,1014.73
2023-01-04T06:18:14.089Z,1014.64
2023-01-04T06:19:13.333Z,1014.71
2023-01-04T06:20:13.321Z,1014.59
2023-01-04T06:21:13.279Z,1014.54
2023-01-04T06:22:13.277Z,1014.66
2023-01-04T06:23:13.258Z,1014.59
2023-01-04T06:24:13.269Z,1014.58
2023-01-04T06:25:13.261Z,1014.53
2023-01-04T06:26:13.265Z,1014.45
2023-01-04T06:27:13.214Z,1014.45
2023-01-04T06:28:13.222Z,1014.52
2023-01-04T06:29:13.215Z,1014.41
2023-01-04T06:30:13.210Z,1014.40
2023-01-04T06:31:13.232Z,1014.34
2023-01-04T06:32:13.175Z,1014.31
2023-01-04T06:33:13.148Z,1014.28
2023-01-04T06:34:13.162Z,1014.36
2023-01-04T06:35:13.124Z,1014.35
2023-01-04T06:36:19.290Z,1014.23
2023-01-04T06:37:14.107Z,1014.27
2023-01-04T06:38:13.094Z,1014.25
2023-01-04T06:39:13.086Z,1014.18
2023-01-04T06:40:13.099Z,1014.18
2023-01-04T06:41:13.066Z,1014.13
2023-01-04T06:42:13.090Z,1014.17
2023-01-04T06:43:13.039Z,1014.04
2023-01-04T06:44:13.038Z,1014.11
2023-01-04T06:45:13.050Z,1014.05
2023-01-04T06:46:13.089Z,1014.04
2023-01-04T06:47:12.997Z,1014.03
2023-01-04T06:48:12.995Z,1014.08
2023-01-04T06:49:13.983Z,1013.95
2023-01-04T06:50:12.983Z,1014.04
2023-01-04T06:51:12.967Z,1013.94
2023-01-04T06:52:12.944Z,1013.90
2023-01-04T06:53:12.937Z,1013.91
2023-01-04T06:54:12.925Z,1013.87
2023-01-04T06:55:12.907Z,1013.79
2023-01-04T06:56:12.925Z,1013.81
2023-01-04T06:57:12.938Z,1013.80
2023-01-04T06:58:12.924Z,1013.92
2023-01-04T06:59:12.871Z,1013.78
2023-01-04T07:00:12.860Z,1013.77
2023-01-04T07:01:12.947Z,1013.78
2023-01-04T07:02:12.936Z,1013.68
2023-01-04T07:03:15.873Z,1013.77
2023-01-04T07:04:12.904Z,1013.74
2023-01-04T07:05:12.798Z,1013.67
2023-01-04T07:06:12.810Z,1013.72
2023-01-04T07:07:12.778Z,1013.64
2023-01-04T07:08:12.781Z,1013.63
2023-01-04T07:09:12.773Z,1013.65
2023-01-04T07:10:12.747Z,1013.61
2023-01-04T07:11:12.731Z,1013.59
2023-01-04T07:12:12.744Z,1013.65
2023-01-04T07:13:12.708Z,1013.67
2023-01-04T07:14:12.721Z,1013.59
2023-01-04T07:15:37.182Z,1013.63
2023-01-04T07:16:13.767Z,1013.59
2023-01-04T07:17:12.695Z,1013.56
2023-01-04T07:18:12.680Z,1013.54
2023-01-04T07:19:12.645Z,1013.50
2023-01-04T07:20:12.656Z,1013.52
2023-01-04T07:21:12.633Z,1013.38
2023-01-04T07:22:12.621Z,1013.35
2023-01-04T07:23:12.631Z,1013.32
2023-01-04T07:24:12.593Z,1013.40
2023-01-04T07:25:12.586Z,1013.30
2023-01-04T07:26:12.576Z,1013.28
2023-01-04T07:27:12.580Z,1013.30
2023-01-04T07:28:12.549Z,1013.32
2023-01-04T07:29:12.548Z,1013.32
2023-01-04T07:30:12.575Z,1013.30
2023-01-04T07:31:12.585Z,1013.32
2023-01-04T07:32:14.249Z,1013.34
2023-01-04T07:33:12.499Z,1013.32
2023-01-04T07:34:12.481Z,1013.23
2023-01-04T07:35:12.517Z,1013.23
2023-01-04T07:36:12.458Z,1013.16
2023-01-04T07:37:12.448Z,1013.16
2023-01-04T07:38:12.447Z,1013.12
2023-01-04T07:39:12.444Z,1013.11
2023-01-04T07:40:12.427Z,1013.10
2023-01-04T07:41:12.436Z,1013.10
2023-01-04T07:42:12.397Z,1013.12
2023-01-04T07:43:12.384Z,1013.09
2023-01-04T07:44:12.382Z,1013.14
2023-01-04T07:45:12.361Z,1013.02
2023-01-04T07:46:12.457Z,1012.97
2023-01-04T07:47:12.344Z,1012.93
2023-01-04T07:48:12.329Z,1012.92
2023-01-04T07:49:16.912Z,1012.92
2023-01-04T07:50:13.320Z,1012.88
2023-01-04T07:51:12.332Z,1012.88
2023-01-04T07:52:12.319Z,1012.90
2023-01-04T07:53:12.304Z,1012.78
2023-01-04T07:54:12.274Z,1012.82
2023-01-04T07:55:12.255Z,1012.70
2023-01-04T07:56:16.909Z,1012.79
2023-01-04T07:57:13.235Z,1012.76
2023-01-04T07:58:12.217Z,1012.66
2023-01-04T07:59:12.213Z,1012.68
2023-01-04T08:00:12.204Z,1012.55
2023-01-04T08:01:12.381Z,1012.53
2023-01-04T08:02:12.393Z,1012.55
2023-01-04T08:03:12.168Z,1012.54
2023-01-04T08:04:12.232Z,1012.46
2023-01-04T08:05:12.236Z,1012.51
2023-01-04T08:06:12.162Z,1012.55
2023-01-04T08:07:12.128Z,1012.50
2023-01-04T08:08:12.112Z,1012.51
2023-01-04T08:09:12.100Z,1012.43
2023-01-04T08:10:12.085Z,1012.51
2023-01-04T08:11:12.117Z,1012.41
2023-01-04T08:12:12.072Z,1012.47
2023-01-04T08:13:12.063Z,1012.43
2023-01-04T08:14:12.073Z,1012.29
2023-01-04T08:15:12.038Z,1012.42
2023-01-04T08:16:12.061Z,1012.33
2023-01-04T08:17:12.021Z,1012.31
2023-01-04T08:18:12.023Z,1012.35
2023-01-04T08:19:12.001Z,1012.26
2023-01-04T08:20:12.010Z,1012.28
2023-01-04T08:21:11.973Z,1012.18
2023-01-04T08:22:11.957Z,1012.24
2023-01-04T08:23:11.948Z,1012.24
2023-01-04T08:24:11.937Z,1012.25
2023-01-04T08:25:11.949Z,1012.20
2023-01-04T08:26:11.973Z,1012.15
2023-01-04T08:27:11.914Z,1012.23
2023-01-04T08:28:11.897Z,1012.29
2023-01-04T08:29:11.896Z,1012.23
2023-01-04T08:30:11.915Z,1012.24
2023-01-04T08:31:11.914Z,1012.25
2023-01-04T08:32:11.852Z,1012.35
2023-01-04T08:33:11.853Z,1012.16
2023-01-04T08:34:11.853Z,1012.16
2023-01-04T08:35:11.854Z,1012.21
2023-01-04T08:36:11.836Z,1012.13
2023-01-04T08:37:11.803Z,1012.15
2023-01-04T08:38:55.631Z,1012.25
2023-01-04T08:39:12.792Z,1012.17
2023-01-04T08:40:11.789Z,1012.22
2023-01-04T08:41:46.714Z,1012.13
2023-01-04T08:42:20.951Z,1012.04
2023-01-04T08:43:12.733Z,1012.13
2023-01-04T08:44:11.715Z,1012.09
2023-01-04T08:45:11.715Z,1012.15
2023-01-04T08:46:11.786Z,1012.21
2023-01-04T08:47:11.695Z,1012.03
2023-01-04T08:48:11.670Z,1012.02
2023-01-04T08:49:11.693Z,1011.98
2023-01-04T08:50:11.786Z,1012.00
2023-01-04T08:51:11.644Z,1012.00
2023-01-04T08:52:11.631Z,1011.98
2023-01-04T08:53:11.626Z,1011.99
2023-01-04T08:54:11.634Z,1012.06
2023-01-04T08:55:13.528Z,1012.06
2023-01-04T08:56:11.596Z,1012.09
2023-01-04T08:57:11.578Z,1012.02
2023-01-04T08:58:11.569Z,1011.97
2023-01-04T08:59:11.588Z,1011.97
2023-01-04T09:00:11.548Z,1011.99
2023-01-04T09:01:11.792Z,1011.91
2023-01-04T09:02:11.681Z,1011.90
2023-01-04T09:03:11.588Z,1011.96
2023-01-04T09:04:11.612Z,1011.95
2023-01-04T09:05:11.545Z,1012.03
2023-01-04T09:06:12.503Z,1011.94
2023-01-04T09:07:11.490Z,1011.88
2023-01-04T09:08:11.467Z,1011.92
2023-01-04T09:09:11.456Z,1012.00
2023-01-04T09:10:11.465Z,1011.98
2023-01-04T09:11:11.432Z,1011.84
2023-01-04T09:12:11.417Z,1011.85
2023-01-04T09:13:11.412Z,1011.91
2023-01-04T09:14:11.403Z,1011.79
2023-01-04T09:15:11.410Z,1011.82
2023-01-04T09:16:11.465Z,1011.82
2023-01-04T09:17:11.368Z,1011.76
2023-01-04T09:18:31.790Z,1011.76
2023-01-04T09:19:18.052Z,1011.82
2023-01-04T09:20:12.348Z,1011.80
2023-01-04T09:21:11.326Z,1011.78
2023-01-04T09:22:11.419Z,1011.72
2023-01-04T09:23:11.301Z,1011.73
2023-01-04T09:24:11.317Z,1011.73
2023-01-04T09:25:11.280Z,1011.67
2023-01-04T09:26:11.272Z,1011.57
2023-01-04T09:27:11.256Z,1011.65
2023-01-04T09:28:11.267Z,1011.53
2023-01-04T09:29:11.294Z,1011.47
2023-01-04T09:30:11.226Z,1011.53
2023-01-04T09:31:11.334Z,1011.51
2023-01-04T09:32:16.269Z,1011.38
2023-01-04T09:33:12.224Z,1011.44
2023-01-04T09:34:14.635Z,1011.43
2023-01-04T09:35:12.174Z,1011.42
2023-01-04T09:36:11.158Z,1011.28
2023-01-04T09:37:11.168Z,1011.30
2023-01-04T09:38:11.159Z,1011.31
2023-01-04T09:39:18.681Z,1011.29
2023-01-04T09:40:12.120Z,1011.22
2023-01-04T09:41:11.111Z,1011.27
2023-01-04T09:42:11.091Z,1011.21
2023-01-04T09:43:20.549Z,1011.22
2023-01-04T09:44:12.102Z,1011.19
2023-01-04T09:45:26.554Z,1011.12
2023-01-04T09:46:12.122Z,1011.15
2023-01-04T09:47:11.105Z,1011.05
2023-01-04T09:48:11.033Z,1011.11
2023-01-04T09:49:11.044Z,1011.13
2023-01-04T09:50:11.047Z,1011.01
2023-01-04T09:51:10.995Z,1011.06
2023-01-04T09:52:10.990Z,1011.10
2023-01-04T09:53:10.976Z,1010.98
2023-01-04T09:54:10.987Z,1011.04
2023-01-04T09:55:37.867Z,1010.89
2023-01-04T09:56:11.941Z,1010.99
2023-01-04T09:57:10.943Z,1010.99
2023-01-04T09:58:10.920Z,1010.95
2023-01-04T09:59:10.918Z,1010.87
2023-01-04T10:00:10.924Z,1010.87
2023-01-04T10:01:11.098Z,1010.92
2023-01-04T10:02:11.117Z,1010.80
2023-01-04T10:03:11.005Z,1010.74
2023-01-04T10:04:10.862Z,1010.80
2023-01-04T10:05:10.874Z,1010.80
2023-01-04T10:06:10.833Z,1010.77
2023-01-04T10:07:10.829Z,1010.68
2023-01-04T10:08:10.812Z,1010.73
2023-01-04T10:09:10.841Z,1010.72
2023-01-04T10:10:10.829Z,1010.67
2023-01-04T10:11:10.786Z,1010.61
2023-01-04T10:12:10.775Z,1010.72
2023-01-04T10:13:10.762Z,1010.60
2023-01-04T10:14:10.789Z,1010.68
2023-01-04T10:15:10.767Z,1010.45
2023-01-04T10:16:10.769Z,1010.53
2023-01-04T10:17:13.323Z,1010.50
2023-01-04T10:20:07.986Z,1010.35
2023-01-04T10:21:29.541Z,1010.37
2023-01-04T10:22:11.796Z,1010.23
2023-01-04T10:23:10.661Z,1010.24
2023-01-04T10:24:10.642Z,1010.23
2023-01-04T10:25:10.631Z,1010.21
2023-01-04T10:26:10.644Z,1010.19
2023-01-04T10:27:10.641Z,1010.27
2023-01-04T10:28:10.632Z,1010.13
2023-01-04T10:29:10.609Z,1010.17
2023-01-04T10:30:10.576Z,1010.10
2023-01-04T10:31:39.338Z,1010.10
2023-01-04T10:32:11.651Z,1010.14
2023-01-04T10:33:10.547Z,1010.16
2023-01-04T10:34:15.327Z,1010.06
2023-01-04T10:35:11.525Z,1010.13
2023-01-04T10:36:10.533Z,1010.03
2023-01-04T10:37:10.531Z,1010.03
2023-01-04T10:38:10.485Z,1009.99
2023-01-04T10:39:10.490Z,1009.99
2023-01-04T10:40:10.837Z,1009.97
2023-01-04T10:41:10.459Z,1009.97
2023-01-04T10:42:10.489Z,1009.90
2023-01-04T10:43:10.440Z,1009.88
2023-01-04T10:44:14.176Z,1009.80
2023-01-04T10:45:10.436Z,1009.96
2023-01-04T10:46:10.404Z,1009.91
2023-01-04T10:47:10.510Z,1009.88
2023-01-04T10:48:10.376Z,1009.84
2023-01-04T10:49:10.377Z,1009.94
2023-01-04T10:50:10.360Z,1009.81
2023-01-04T10:51:10.913Z,1009.80
2023-01-04T10:52:10.367Z,1009.79
2023-01-04T10:53:10.327Z,1009.74
2023-01-04T10:54:10.313Z,1009.72
2023-01-04T10:55:10.330Z,1009.72
2023-01-04T10:56:25.349Z,1009.74
2023-01-04T10:57:11.322Z,1009.65
2023-01-04T10:58:10.296Z,1009.67
2023-01-04T10:59:10.266Z,1009.62
2023-01-04T11:00:10.253Z,1009.63
2023-01-04T11:01:10.365Z,1009.58
2023-01-04T11:02:10.441Z,1009.51
2023-01-04T11:03:10.448Z,1009.60
2023-01-04T11:04:10.207Z,1009.51
2023-01-04T11:05:10.200Z,1009.58
2023-01-04T11:06:10.185Z,1009.55
2023-01-04T11:07:10.174Z,1009.44
2023-01-04T11:08:10.198Z,1009.53
2023-01-04T11:09:13.256Z,1009.52
2023-01-04T11:10:10.140Z,1009.44
2023-01-04T11:11:10.162Z,1009.44
2023-01-04T11:12:10.126Z,1009.31
2023-01-04T11:13:10.112Z,1009.36
2023-01-04T11:14:10.115Z,1009.36
2023-01-04T11:15:10.102Z,1009.37
2023-01-04T11:16:10.132Z,1009.36
2023-01-04T11:17:10.099Z,1009.33
2023-01-04T11:18:10.065Z,1009.34
2023-01-04T11:19:10.082Z,1009.33
2023-01-04T11:20:10.039Z,1009.26
2023-01-04T11:21:10.030Z,1009.25
2023-01-04T11:22:10.012Z,1009.11
2023-01-04T11:23:10.031Z,1009.15
2023-01-04T11:24:30.871Z,1009.19
2023-01-04T11:25:40.847Z,1009.18
2023-01-04T11:26:10.964Z,1009.26
2023-01-04T11:27:09.961Z,1009.30
2023-01-04T11:28:09.956Z,1009.20
2023-01-04T11:29:09.966Z,1009.24
2023-01-04T11:30:09.960Z,1009.20
2023-01-04T11:31:09.984Z,1009.21
2023-01-04T11:32:09.979Z,1009.14
2023-01-04T11:33:09.916Z,1009.09
2023-01-04T11:34:09.894Z,1009.11
2023-01-04T11:35:09.875Z,1009.01
2023-01-04T11:36:09.878Z,1009.08
2023-01-04T11:37:09.850Z,1009.06
2023-01-04T11:38:09.841Z,1009.09
2023-01-04T11:39:09.829Z,1009.06
2023-01-04T11:40:09.817Z,1009.01
2023-01-04T11:41:09.831Z,1009.03
2023-01-04T11:42:09.800Z,1008.99
2023-01-04T11:43:09.790Z,1008.91
2023-01-04T11:44:09.768Z,1008.96
2023-01-04T11:45:09.763Z,1008.90
2023-01-04T11:46:09.860Z,1008.90
2023-01-04T11:47:09.740Z,1008.91
2023-01-04T11:48:14.609Z,1008.93
2023-01-04T11:49:10.719Z,1008.85
2023-01-04T11:50:09.719Z,1008.80
2023-01-04T11:51:15.365Z,1008.80
2023-01-04T11:52:10.687Z,1008.76
2023-01-04T11:53:09.675Z,1008.72
2023-01-04T11:54:09.675Z,1008.74
2023-01-04T11:55:09.654Z,1008.74
2023-01-04T11:56:09.676Z,1008.63
2023-01-04T11:57:12.138Z,1008.63
2023-01-04T11:58:09.634Z,1008.63
2023-01-04T11:59:09.619Z,1008.67
2023-01-04T12:00:09.604Z,1008.60
2023-01-04T12:01:09.660Z,1008.57
2023-01-04T12:02:09.791Z,1008.53
2023-01-04T12:03:09.571Z,1008.52
2023-01-04T12:04:09.565Z,1008.49
2023-01-04T12:05:09.546Z,1008.50
2023-01-04T12:06:09.541Z,1008.40
2023-01-04T12:07:09.521Z,1008.39